sensor_id;sensor_type;location;lat;lon;timestamp;P1;durP1;ratioP1;P2;durP2;ratioP2
21420;SDS011;10871;50.144;8.428;2023-11-19T00:00:27;24.05;;;15.13;;
21420;SDS011;10871;50.144;8.428;2023-11-19T00:02:54;25.45;;;15.52;;
21420;SDS011;10871;50.144;8.428;2023-11-19T00:05:21;28.02;;;16.17;;
21420;SDS011;10871;50.144;8.428;2023-11-19T00:07:47;26.83;;;15.50;;
21420;SDS011;10871;50.144;8.428;2023-11-19T00:10:15;27.75;;;15.20;;
21420;SDS011;10871;50.144;8.428;2023-11-19T00:12:47;23.60;;;14.70;;
21420;SDS011;10871;50.144;8.428;2023-11-19T00:15:15;25.83;;;15.38;;
21420;SDS011;10871;50.144;8.428;2023-11-19T00:17:42;24.33;;;15.55;;
21420;SDS011;10871;50.144;8.428;2023-11-19T00:20:16;24.25;;;14.45;;
21420;SDS011;10871;50.144;8.428;2023-11-19T00:22:43;25.23;;;15.30;;
21420;SDS011;10871;50.144;8.428;2023-11-19T00:25:13;23.15;;;14.73;;
21420;SDS011;10871;50.144;8.428;2023-11-19T00:27:41;23.65;;;15.27;;
21420;SDS011;10871;50.144;8.428;2023-11-19T00:30:12;25.45;;;14.70;;
21420;SDS011;10871;50.144;8.428;2023-11-19T00:32:40;31.50;;;16.35;;
21420;SDS011;10871;50.144;8.428;2023-11-19T00:35:07;31.10;;;16.13;;
21420;SDS011;10871;50.144;8.428;2023-11-19T00:37:34;32.10;;;17.92;;
21420;SDS011;10871;50.144;8.428;2023-11-19T00:40:01;30.90;;;18.13;;
21420;SDS011;10871;50.144;8.428;2023-11-19T00:42:33;29.90;;;17.05;;
21420;SDS011;10871;50.144;8.428;2023-11-19T00:45:00;31.13;;;17.77;;
21420;SDS011;10871;50.144;8.428;2023-11-19T00:47:28;28.88;;;16.98;;
21420;SDS011;10871;50.144;8.428;2023-11-19T00:49:55;34.15;;;18.67;;
21420;SDS011;10871;50.144;8.428;2023-11-19T00:52:22;27.10;;;15.63;;
21420;SDS011;10871;50.144;8.428;2023-11-19T00:54:49;23.73;;;13.40;;
21420;SDS011;10871;50.144;8.428;2023-11-19T00:57:16;22.80;;;13.50;;
21420;SDS011;10871;50.144;8.428;2023-11-19T00:59:42;20.85;;;13.48;;
21420;SDS011;10871;50.144;8.428;2023-11-19T01:02:09;19.98;;;12.48;;
21420;SDS011;10871;50.144;8.428;2023-11-19T01:04:36;23.65;;;13.52;;
21420;SDS011;10871;50.144;8.428;2023-11-19T01:07:03;20.83;;;12.35;;
21420;SDS011;10871;50.144;8.428;2023-11-19T01:09:31;19.40;;;12.20;;
21420;SDS011;10871;50.144;8.428;2023-11-19T01:12:01;19.88;;;12.20;;
21420;SDS011;10871;50.144;8.428;2023-11-19T01:14:28;21.45;;;12.90;;
21420;SDS011;10871;50.144;8.428;2023-11-19T01:16:55;21.70;;;13.00;;
21420;SDS011;10871;50.144;8.428;2023-11-19T01:19:23;24.10;;;13.82;;
21420;SDS011;10871;50.144;8.428;2023-11-19T01:21:52;22.45;;;12.80;;
21420;SDS011;10871;50.144;8.428;2023-11-19T01:24:20;22.25;;;14.35;;
21420;SDS011;10871;50.144;8.428;2023-11-19T01:26:48;26.50;;;14.75;;
21420;SDS011;10871;50.144;8.428;2023-11-19T01:29:15;28.50;;;16.13;;
21420;SDS011;10871;50.144;8.428;2023-11-19T01:31:43;26.50;;;15.10;;
21420;SDS011;10871;50.144;8.428;2023-11-19T01:34:10;29.35;;;15.48;;
21420;SDS011;10871;50.144;8.428;2023-11-19T01:36:37;24.85;;;14.30;;
21420;SDS011;10871;50.144;8.428;2023-11-19T01:39:04;27.20;;;14.90;;
21420;SDS011;10871;50.144;8.428;2023-11-19T01:41:34;27.00;;;15.50;;
21420;SDS011;10871;50.144;8.428;2023-11-19T01:44:01;30.25;;;16.63;;
21420;SDS011;10871;50.144;8.428;2023-11-19T01:46:29;30.40;;;14.57;;
21420;SDS011;10871;50.144;8.428;2023-11-19T01:48:56;29.95;;;16.15;;
21420;SDS011;10871;50.144;8.428;2023-11-19T01:51:23;31.48;;;16.80;;
21420;SDS011;10871;50.144;8.428;2023-11-19T01:53:51;31.90;;;15.82;;
21420;SDS011;10871;50.144;8.428;2023-11-19T01:56:20;28.88;;;15.98;;
21420;SDS011;10871;50.144;8.428;2023-11-19T01:58:47;28.33;;;15.02;;
21420;SDS011;10871;50.144;8.428;2023-11-19T02:01:16;28.92;;;15.00;;
21420;SDS011;10871;50.144;8.428;2023-11-19T02:03:43;26.35;;;15.30;;
21420;SDS011;10871;50.144;8.428;2023-11-19T02:06:10;24.10;;;14.23;;
21420;SDS011;10871;50.144;8.428;2023-11-19T02:08:38;24.90;;;14.43;;
21420;SDS011;10871;50.144;8.428;2023-11-19T02:11:06;24.65;;;13.57;;
21420;SDS011;10871;50.144;8.428;2023-11-19T02:13:37;22.63;;;13.10;;
21420;SDS011;10871;50.144;8.428;2023-11-19T02:16:03;17.92;;;11.38;;
21420;SDS011;10871;50.144;8.428;2023-11-19T02:18:31;17.50;;;10.85;;
21420;SDS011;10871;50.144;8.428;2023-11-19T02:20:57;14.98;;;10.23;;
21420;SDS011;10871;50.144;8.428;2023-11-19T02:23:26;14.00;;;9.38;;
21420;SDS011;10871;50.144;8.428;2023-11-19T02:28:19;11.13;;;7.50;;
21420;SDS011;10871;50.144;8.428;2023-11-19T02:30:47;10.88;;;7.80;;
21420;SDS011;10871;50.144;8.428;2023-11-19T02:33:14;10.85;;;7.07;;
21420;SDS011;10871;50.144;8.428;2023-11-19T02:35:41;9.93;;;7.07;;
21420;SDS011;10871;50.144;8.428;2023-11-19T02:38:08;12.55;;;6.25;;
21420;SDS011;10871;50.144;8.428;2023-11-19T02:40:35;8.70;;;6.45;;
21420;SDS011;10871;50.144;8.428;2023-11-19T02:43:02;10.45;;;6.32;;
21420;SDS011;10871;50.144;8.428;2023-11-19T02:45:31;8.98;;;6.55;;
21420;SDS011;10871;50.144;8.428;2023-11-19T02:47:59;10.20;;;6.22;;
21420;SDS011;10871;50.144;8.428;2023-11-19T02:50:28;8.43;;;6.35;;
21420;SDS011;10871;50.144;8.428;2023-11-19T02:52:56;8.90;;;6.40;;
21420;SDS011;10871;50.144;8.428;2023-11-19T02:55:24;8.98;;;6.18;;
21420;SDS011;10871;50.144;8.428;2023-11-19T02:57:51;9.90;;;6.85;;
21420;SDS011;10871;50.144;8.428;2023-11-19T03:00:21;9.45;;;6.70;;
21420;SDS011;10871;50.144;8.428;2023-11-19T03:02:51;10.25;;;7.05;;
21420;SDS011;10871;50.144;8.428;2023-11-19T03:05:41;10.95;;;7.53;;
21420;SDS011;10871;50.144;8.428;2023-11-19T03:08:08;9.50;;;6.97;;
21420;SDS011;10871;50.144;8.428;2023-11-19T03:10:34;10.95;;;7.50;;
21420;SDS011;10871;50.144;8.428;2023-11-19T03:13:02;13.95;;;7.55;;
21420;SDS011;10871;50.144;8.428;2023-11-19T03:15:29;14.38;;;8.13;;
21420;SDS011;10871;50.144;8.428;2023-11-19T03:17:56;10.88;;;7.72;;
21420;SDS011;10871;50.144;8.428;2023-11-19T03:20:30;9.75;;;7.10;;
21420;SDS011;10871;50.144;8.428;2023-11-19T03:22:56;10.30;;;6.90;;
21420;SDS011;10871;50.144;8.428;2023-11-19T03:25:27;11.27;;;7.65;;
21420;SDS011;10871;50.144;8.428;2023-11-19T03:28:00;14.77;;;8.10;;
21420;SDS011;10871;50.144;8.428;2023-11-19T03:30:28;10.73;;;7.35;;
21420;SDS011;10871;50.144;8.428;2023-11-19T03:32:59;10.35;;;6.85;;
21420;SDS011;10871;50.144;8.428;2023-11-19T03:35:29;9.00;;;5.88;;
21420;SDS011;10871;50.144;8.428;2023-11-19T03:37:56;7.95;;;5.88;;
21420;SDS011;10871;50.144;8.428;2023-11-19T03:40:23;10.27;;;6.72;;
21420;SDS011;10871;50.144;8.428;2023-11-19T03:42:52;10.52;;;6.35;;
21420;SDS011;10871;50.144;8.428;2023-11-19T03:45:19;9.60;;;6.85;;
21420;SDS011;10871;50.144;8.428;2023-11-19T03:47:45;10.23;;;7.40;;
21420;SDS011;10871;50.144;8.428;2023-11-19T03:50:12;9.38;;;6.72;;
21420;SDS011;10871;50.144;8.428;2023-11-19T03:52:39;13.60;;;7.72;;
21420;SDS011;10871;50.144;8.428;2023-11-19T03:55:08;10.23;;;7.70;;
21420;SDS011;10871;50.144;8.428;2023-11-19T03:57:35;12.88;;;7.72;;
21420;SDS011;10871;50.144;8.428;2023-11-19T04:00:02;10.63;;;7.80;;
21420;SDS011;10871;50.144;8.428;2023-11-19T04:02:39;12.75;;;8.60;;
21420;SDS011;10871;50.144;8.428;2023-11-19T04:05:06;15.27;;;9.27;;
21420;SDS011;10871;50.144;8.428;2023-11-19T04:07:33;14.30;;;8.55;;
21420;SDS011;10871;50.144;8.428;2023-11-19T04:09:59;13.25;;;8.57;;
21420;SDS011;10871;50.144;8.428;2023-11-19T04:12:26;14.75;;;9.05;;
21420;SDS011;10871;50.144;8.428;2023-11-19T04:14:53;14.32;;;8.85;;
21420;SDS011;10871;50.144;8.428;2023-11-19T04:17:22;15.93;;;8.90;;
21420;SDS011;10871;50.144;8.428;2023-11-19T04:19:49;12.02;;;8.25;;
21420;SDS011;10871;50.144;8.428;2023-11-19T04:22:16;12.80;;;8.32;;
21420;SDS011;10871;50.144;8.428;2023-11-19T04:24:44;13.70;;;8.55;;
21420;SDS011;10871;50.144;8.428;2023-11-19T04:27:12;15.07;;;8.43;;
21420;SDS011;10871;50.144;8.428;2023-11-19T04:29:40;13.32;;;8.52;;
21420;SDS011;10871;50.144;8.428;2023-11-19T04:32:06;12.90;;;8.20;;
21420;SDS011;10871;50.144;8.428;2023-11-19T04:34:34;13.30;;;7.88;;
21420;SDS011;10871;50.144;8.428;2023-11-19T04:37:01;17.73;;;8.43;;
21420;SDS011;10871;50.144;8.428;2023-11-19T04:39:39;15.80;;;7.85;;
21420;SDS011;10871;50.144;8.428;2023-11-19T04:42:05;13.57;;;8.45;;
21420;SDS011;10871;50.144;8.428;2023-11-19T04:44:33;12.98;;;8.38;;
21420;SDS011;10871;50.144;8.428;2023-11-19T04:46:59;12.48;;;7.90;;
21420;SDS011;10871;50.144;8.428;2023-11-19T04:49:27;14.50;;;8.10;;
21420;SDS011;10871;50.144;8.428;2023-11-19T04:51:55;13.68;;;8.32;;
21420;SDS011;10871;50.144;8.428;2023-11-19T04:54:21;11.93;;;8.10;;
21420;SDS011;10871;50.144;8.428;2023-11-19T04:56:48;13.30;;;8.23;;
21420;SDS011;10871;50.144;8.428;2023-11-19T04:59:15;12.90;;;8.13;;
21420;SDS011;10871;50.144;8.428;2023-11-19T05:01:45;14.80;;;8.23;;
21420;SDS011;10871;50.144;8.428;2023-11-19T05:04:13;13.70;;;7.85;;
21420;SDS011;10871;50.144;8.428;2023-11-19T05:06:39;14.35;;;8.43;;
21420;SDS011;10871;50.144;8.428;2023-11-19T05:09:06;13.13;;;8.30;;
21420;SDS011;10871;50.144;8.428;2023-11-19T05:11:36;12.20;;;7.50;;
21420;SDS011;10871;50.144;8.428;2023-11-19T05:14:17;9.73;;;6.45;;
21420;SDS011;10871;50.144;8.428;2023-11-19T05:16:45;9.55;;;6.28;;
21420;SDS011;10871;50.144;8.428;2023-11-19T05:19:11;11.43;;;6.70;;
21420;SDS011;10871;50.144;8.428;2023-11-19T05:21:38;10.70;;;6.47;;
21420;SDS011;10871;50.144;8.428;2023-11-19T05:24:05;13.45;;;7.78;;
21420;SDS011;10871;50.144;8.428;2023-11-19T05:26:31;10.30;;;7.03;;
21420;SDS011;10871;50.144;8.428;2023-11-19T05:28:58;7.43;;;5.53;;
21420;SDS011;10871;50.144;8.428;2023-11-19T05:31:25;9.25;;;5.78;;
21420;SDS011;10871;50.144;8.428;2023-11-19T05:33:51;9.85;;;5.88;;
21420;SDS011;10871;50.144;8.428;2023-11-19T05:36:18;11.23;;;6.45;;
21420;SDS011;10871;50.144;8.428;2023-11-19T05:38:44;10.63;;;5.60;;
21420;SDS011;10871;50.144;8.428;2023-11-19T05:41:11;8.55;;;5.22;;
21420;SDS011;10871;50.144;8.428;2023-11-19T05:43:37;8.30;;;5.70;;
21420;SDS011;10871;50.144;8.428;2023-11-19T05:46:07;8.18;;;5.97;;
21420;SDS011;10871;50.144;8.428;2023-11-19T05:48:45;9.23;;;5.55;;
21420;SDS011;10871;50.144;8.428;2023-11-19T05:51:13;9.65;;;6.57;;
21420;SDS011;10871;50.144;8.428;2023-11-19T05:53:42;9.30;;;6.05;;
21420;SDS011;10871;50.144;8.428;2023-11-19T05:56:08;11.85;;;6.28;;
21420;SDS011;10871;50.144;8.428;2023-11-19T05:58:36;9.35;;;6.22;;
21420;SDS011;10871;50.144;8.428;2023-11-19T06:01:04;9.98;;;6.30;;
21420;SDS011;10871;50.144;8.428;2023-11-19T06:03:31;10.85;;;6.43;;
21420;SDS011;10871;50.144;8.428;2023-11-19T06:05:57;13.45;;;7.35;;
21420;SDS011;10871;50.144;8.428;2023-11-19T06:08:24;10.15;;;6.10;;
21420;SDS011;10871;50.144;8.428;2023-11-19T06:10:53;11.98;;;7.07;;
21420;SDS011;10871;50.144;8.428;2023-11-19T06:13:21;19.52;;;8.35;;
21420;SDS011;10871;50.144;8.428;2023-11-19T06:15:50;13.52;;;7.97;;
21420;SDS011;10871;50.144;8.428;2023-11-19T06:18:18;15.73;;;8.18;;
21420;SDS011;10871;50.144;8.428;2023-11-19T06:20:47;19.52;;;8.82;;
21420;SDS011;10871;50.144;8.428;2023-11-19T06:23:13;14.40;;;8.23;;
21420;SDS011;10871;50.144;8.428;2023-11-19T06:25:40;13.05;;;7.63;;
21420;SDS011;10871;50.144;8.428;2023-11-19T06:28:07;14.32;;;7.88;;
21420;SDS011;10871;50.144;8.428;2023-11-19T06:30:33;19.25;;;8.93;;
21420;SDS011;10871;50.144;8.428;2023-11-19T06:33:00;13.55;;;7.68;;
21420;SDS011;10871;50.144;8.428;2023-11-19T06:35:27;15.88;;;8.02;;
21420;SDS011;10871;50.144;8.428;2023-11-19T06:37:56;17.27;;;8.95;;
21420;SDS011;10871;50.144;8.428;2023-11-19T06:40:23;22.63;;;9.27;;
21420;SDS011;10871;50.144;8.428;2023-11-19T06:42:50;18.25;;;9.38;;
21420;SDS011;10871;50.144;8.428;2023-11-19T06:45:18;14.70;;;8.48;;
21420;SDS011;10871;50.144;8.428;2023-11-19T06:47:45;15.15;;;8.27;;
21420;SDS011;10871;50.144;8.428;2023-11-19T06:50:11;14.30;;;7.72;;
21420;SDS011;10871;50.144;8.428;2023-11-19T06:52:39;17.83;;;8.52;;
21420;SDS011;10871;50.144;8.428;2023-11-19T06:55:06;15.38;;;8.50;;
21420;SDS011;10871;50.144;8.428;2023-11-19T06:57:34;18.50;;;8.77;;
21420;SDS011;10871;50.144;8.428;2023-11-19T07:00:01;15.93;;;8.15;;
21420;SDS011;10871;50.144;8.428;2023-11-19T07:02:27;18.23;;;8.63;;
21420;SDS011;10871;50.144;8.428;2023-11-19T07:04:54;18.23;;;8.20;;
21420;SDS011;10871;50.144;8.428;2023-11-19T07:07:21;18.40;;;8.90;;
21420;SDS011;10871;50.144;8.428;2023-11-19T07:09:47;17.70;;;8.82;;
21420;SDS011;10871;50.144;8.428;2023-11-19T07:12:15;16.95;;;8.82;;
21420;SDS011;10871;50.144;8.428;2023-11-19T07:14:41;30.13;;;9.65;;
21420;SDS011;10871;50.144;8.428;2023-11-19T07:17:08;22.92;;;9.02;;
21420;SDS011;10871;50.144;8.428;2023-11-19T07:19:38;17.48;;;8.85;;
21420;SDS011;10871;50.144;8.428;2023-11-19T07:22:05;17.83;;;8.05;;
21420;SDS011;10871;50.144;8.428;2023-11-19T07:24:33;22.98;;;8.32;;
21420;SDS011;10871;50.144;8.428;2023-11-19T07:26:59;13.38;;;7.35;;
21420;SDS011;10871;50.144;8.428;2023-11-19T07:29:28;11.85;;;6.07;;
21420;SDS011;10871;50.144;8.428;2023-11-19T07:31:55;14.38;;;6.63;;
21420;SDS011;10871;50.144;8.428;2023-11-19T07:34:24;12.63;;;6.50;;
21420;SDS011;10871;50.144;8.428;2023-11-19T07:36:51;12.43;;;6.15;;
21420;SDS011;10871;50.144;8.428;2023-11-19T07:39:18;22.42;;;7.28;;
21420;SDS011;10871;50.144;8.428;2023-11-19T07:41:45;29.38;;;8.40;;
21420;SDS011;10871;50.144;8.428;2023-11-19T07:44:13;22.40;;;8.57;;
21420;SDS011;10871;50.144;8.428;2023-11-19T07:46:40;13.95;;;7.65;;
21420;SDS011;10871;50.144;8.428;2023-11-19T07:49:09;14.52;;;7.57;;
21420;SDS011;10871;50.144;8.428;2023-11-19T07:51:36;17.10;;;8.85;;
21420;SDS011;10871;50.144;8.428;2023-11-19T07:54:03;14.95;;;8.35;;
21420;SDS011;10871;50.144;8.428;2023-11-19T07:56:31;15.15;;;8.18;;
21420;SDS011;10871;50.144;8.428;2023-11-19T07:58:58;16.67;;;9.20;;
21420;SDS011;10871;50.144;8.428;2023-11-19T08:01:24;16.55;;;8.73;;
21420;SDS011;10871;50.144;8.428;2023-11-19T08:03:51;14.38;;;8.32;;
21420;SDS011;10871;50.144;8.428;2023-11-19T08:06:21;12.98;;;7.70;;
21420;SDS011;10871;50.144;8.428;2023-11-19T08:08:47;16.15;;;7.75;;
21420;SDS011;10871;50.144;8.428;2023-11-19T08:11:14;13.02;;;7.32;;
21420;SDS011;10871;50.144;8.428;2023-11-19T08:13:41;13.57;;;7.55;;
21420;SDS011;10871;50.144;8.428;2023-11-19T08:16:09;9.13;;;6.20;;
21420;SDS011;10871;50.144;8.428;2023-11-19T08:18:36;13.07;;;7.75;;
21420;SDS011;10871;50.144;8.428;2023-11-19T08:21:03;9.82;;;7.28;;
21420;SDS011;10871;50.144;8.428;2023-11-19T08:23:31;10.65;;;7.55;;
21420;SDS011;10871;50.144;8.428;2023-11-19T08:25:58;13.63;;;7.93;;
21420;SDS011;10871;50.144;8.428;2023-11-19T08:28:25;16.15;;;8.85;;
21420;SDS011;10871;50.144;8.428;2023-11-19T08:30:51;12.68;;;7.05;;
21420;SDS011;10871;50.144;8.428;2023-11-19T08:33:18;12.35;;;6.50;;
21420;SDS011;10871;50.144;8.428;2023-11-19T08:35:45;12.50;;;6.03;;
21420;SDS011;10871;50.144;8.428;2023-11-19T08:38:13;7.00;;;5.18;;
21420;SDS011;10871;50.144;8.428;2023-11-19T08:40:40;8.13;;;5.32;;
21420;SDS011;10871;50.144;8.428;2023-11-19T08:43:06;7.82;;;5.10;;
21420;SDS011;10871;50.144;8.428;2023-11-19T08:45:33;7.28;;;5.50;;
21420;SDS011;10871;50.144;8.428;2023-11-19T08:48:00;7.68;;;4.78;;
21420;SDS011;10871;50.144;8.428;2023-11-19T08:50:26;10.40;;;5.10;;
21420;SDS011;10871;50.144;8.428;2023-11-19T08:52:53;9.82;;;6.03;;
21420;SDS011;10871;50.144;8.428;2023-11-19T08:55:20;7.32;;;6.00;;
21420;SDS011;10871;50.144;8.428;2023-11-19T08:57:46;12.15;;;6.60;;
21420;SDS011;10871;50.144;8.428;2023-11-19T09:00:13;12.57;;;6.25;;
21420;SDS011;10871;50.144;8.428;2023-11-19T09:02:40;11.63;;;5.90;;
21420;SDS011;10871;50.144;8.428;2023-11-19T09:05:08;6.68;;;4.75;;
21420;SDS011;10871;50.144;8.428;2023-11-19T09:07:34;7.10;;;4.93;;
21420;SDS011;10871;50.144;8.428;2023-11-19T09:10:01;7.88;;;4.22;;
21420;SDS011;10871;50.144;8.428;2023-11-19T09:12:28;6.45;;;3.90;;
21420;SDS011;10871;50.144;8.428;2023-11-19T09:14:55;8.18;;;3.30;;
21420;SDS011;10871;50.144;8.428;2023-11-19T09:17:22;6.63;;;2.22;;
21420;SDS011;10871;50.144;8.428;2023-11-19T09:19:48;7.95;;;2.28;;
21420;SDS011;10871;50.144;8.428;2023-11-19T09:22:15;5.25;;;1.80;;
21420;SDS011;10871;50.144;8.428;2023-11-19T09:24:42;5.32;;;1.65;;
21420;SDS011;10871;50.144;8.428;2023-11-19T09:27:11;4.80;;;1.73;;
21420;SDS011;10871;50.144;8.428;2023-11-19T09:29:38;5.03;;;1.75;;
21420;SDS011;10871;50.144;8.428;2023-11-19T09:32:05;5.75;;;1.50;;
21420;SDS011;10871;50.144;8.428;2023-11-19T09:34:32;3.58;;;1.60;;
21420;SDS011;10871;50.144;8.428;2023-11-19T09:37:02;4.63;;;1.40;;
21420;SDS011;10871;50.144;8.428;2023-11-19T09:39:49;2.90;;;1.40;;
21420;SDS011;10871;50.144;8.428;2023-11-19T09:42:19;4.68;;;1.50;;
21420;SDS011;10871;50.144;8.428;2023-11-19T09:44:46;5.88;;;2.10;;
21420;SDS011;10871;50.144;8.428;2023-11-19T09:47:13;6.25;;;1.67;;
21420;SDS011;10871;50.144;8.428;2023-11-19T09:49:40;2.97;;;1.60;;
21420;SDS011;10871;50.144;8.428;2023-11-19T09:52:07;6.05;;;1.60;;
21420;SDS011;10871;50.144;8.428;2023-11-19T09:54:34;3.83;;;1.58;;
21420;SDS011;10871;50.144;8.428;2023-11-19T09:57:01;9.52;;;7.30;;
21420;SDS011;10871;50.144;8.428;2023-11-19T09:59:31;10.52;;;3.90;;
21420;SDS011;10871;50.144;8.428;2023-11-19T10:01:59;10.15;;;2.25;;
21420;SDS011;10871;50.144;8.428;2023-11-19T10:04:29;5.95;;;1.75;;
21420;SDS011;10871;50.144;8.428;2023-11-19T10:07:03;5.90;;;1.98;;
21420;SDS011;10871;50.144;8.428;2023-11-19T10:09:30;7.75;;;3.50;;
21420;SDS011;10871;50.144;8.428;2023-11-19T10:11:56;5.50;;;3.35;;
21420;SDS011;10871;50.144;8.428;2023-11-19T10:14:23;5.20;;;1.77;;
21420;SDS011;10871;50.144;8.428;2023-11-19T10:16:50;8.05;;;2.15;;
21420;SDS011;10871;50.144;8.428;2023-11-19T10:19:20;6.05;;;1.83;;
21420;SDS011;10871;50.144;8.428;2023-11-19T10:21:47;7.68;;;2.00;;
21420;SDS011;10871;50.144;8.428;2023-11-19T10:24:14;5.50;;;1.60;;
21420;SDS011;10871;50.144;8.428;2023-11-19T10:26:56;12.68;;;1.83;;
21420;SDS011;10871;50.144;8.428;2023-11-19T10:29:23;6.90;;;1.77;;
21420;SDS011;10871;50.144;8.428;2023-11-19T10:31:56;10.35;;;2.10;;
21420;SDS011;10871;50.144;8.428;2023-11-19T10:34:43;7.68;;;3.15;;
21420;SDS011;10871;50.144;8.428;2023-11-19T10:37:27;5.15;;;2.00;;
21420;SDS011;10871;50.144;8.428;2023-11-19T10:42:38;8.02;;;3.15;;
21420;SDS011;10871;50.144;8.428;2023-11-19T10:45:05;5.70;;;1.55;;
21420;SDS011;10871;50.144;8.428;2023-11-19T10:47:44;8.00;;;1.83;;
21420;SDS011;10871;50.144;8.428;2023-11-19T10:50:20;6.18;;;3.08;;
21420;SDS011;10871;50.144;8.428;2023-11-19T10:52:47;7.72;;;2.08;;
21420;SDS011;10871;50.144;8.428;2023-11-19T10:55:15;11.15;;;6.50;;
21420;SDS011;10871;50.144;8.428;2023-11-19T10:57:46;8.85;;;2.85;;
21420;SDS011;10871;50.144;8.428;2023-11-19T11:00:13;7.43;;;2.10;;
21420;SDS011;10871;50.144;8.428;2023-11-19T11:02:42;7.40;;;2.53;;
21420;SDS011;10871;50.144;8.428;2023-11-19T11:05:12;7.70;;;2.30;;
21420;SDS011;10871;50.144;8.428;2023-11-19T11:07:38;8.80;;;2.90;;
21420;SDS011;10871;50.144;8.428;2023-11-19T11:10:07;6.97;;;3.38;;
21420;SDS011;10871;50.144;8.428;2023-11-19T11:12:36;10.48;;;3.28;;
21420;SDS011;10871;50.144;8.428;2023-11-19T11:15:03;7.63;;;2.33;;
21420;SDS011;10871;50.144;8.428;2023-11-19T11:17:32;6.47;;;2.28;;
21420;SDS011;10871;50.144;8.428;2023-11-19T11:20:00;11.73;;;4.53;;
21420;SDS011;10871;50.144;8.428;2023-11-19T11:22:27;7.45;;;2.63;;
21420;SDS011;10871;50.144;8.428;2023-11-19T11:25:05;12.13;;;7.43;;
21420;SDS011;10871;50.144;8.428;2023-11-19T11:28:03;9.07;;;2.30;;
21420;SDS011;10871;50.144;8.428;2023-11-19T11:30:28;8.35;;;2.50;;
21420;SDS011;10871;50.144;8.428;2023-11-19T11:33:46;10.77;;;3.25;;
21420;SDS011;10871;50.144;8.428;2023-11-19T11:38:12;15.63;;;3.95;;
21420;SDS011;10871;50.144;8.428;2023-11-19T11:40:40;15.40;;;11.55;;
21420;SDS011;10871;50.144;8.428;2023-11-19T11:45:52;11.80;;;2.80;;
21420;SDS011;10871;50.144;8.428;2023-11-19T11:48:19;11.57;;;2.47;;
21420;SDS011;10871;50.144;8.428;2023-11-19T11:50:53;10.85;;;2.90;;
21420;SDS011;10871;50.144;8.428;2023-11-19T11:53:20;8.43;;;2.58;;
21420;SDS011;10871;50.144;8.428;2023-11-19T11:58:19;10.18;;;2.35;;
21420;SDS011;10871;50.144;8.428;2023-11-19T12:00:48;9.75;;;2.53;;
21420;SDS011;10871;50.144;8.428;2023-11-19T12:03:21;10.25;;;2.55;;
21420;SDS011;10871;50.144;8.428;2023-11-19T12:05:48;9.57;;;2.50;;
21420;SDS011;10871;50.144;8.428;2023-11-19T12:08:18;12.40;;;2.63;;
21420;SDS011;10871;50.144;8.428;2023-11-19T12:10:51;14.15;;;3.13;;
21420;SDS011;10871;50.144;8.428;2023-11-19T12:13:19;11.48;;;3.08;;
21420;SDS011;10871;50.144;8.428;2023-11-19T12:16:21;9.80;;;2.90;;
21420;SDS011;10871;50.144;8.428;2023-11-19T12:18:40;14.38;;;2.88;;
21420;SDS011;10871;50.144;8.428;2023-11-19T12:21:08;13.90;;;2.67;;
21420;SDS011;10871;50.144;8.428;2023-11-19T12:23:43;10.15;;;2.90;;
21420;SDS011;10871;50.144;8.428;2023-11-19T12:26:20;9.30;;;2.42;;
21420;SDS011;10871;50.144;8.428;2023-11-19T12:28:57;20.67;;;12.40;;
21420;SDS011;10871;50.144;8.428;2023-11-19T12:31:24;9.68;;;2.22;;
21420;SDS011;10871;50.144;8.428;2023-11-19T12:33:51;9.27;;;2.97;;
21420;SDS011;10871;50.144;8.428;2023-11-19T12:36:18;7.97;;;2.10;;
21420;SDS011;10871;50.144;8.428;2023-11-19T12:38:45;9.40;;;2.60;;
21420;SDS011;10871;50.144;8.428;2023-11-19T12:41:12;6.15;;;1.92;;
21420;SDS011;10871;50.144;8.428;2023-11-19T12:43:41;8.13;;;1.88;;
21420;SDS011;10871;50.144;8.428;2023-11-19T12:46:21;6.50;;;2.17;;
21420;SDS011;10871;50.144;8.428;2023-11-19T12:48:48;10.27;;;2.97;;
21420;SDS011;10871;50.144;8.428;2023-11-19T12:51:15;8.38;;;2.53;;
21420;SDS011;10871;50.144;8.428;2023-11-19T12:53:50;11.07;;;2.53;;
21420;SDS011;10871;50.144;8.428;2023-11-19T12:58:43;8.95;;;2.25;;
21420;SDS011;10871;50.144;8.428;2023-11-19T13:01:10;9.90;;;2.53;;
21420;SDS011;10871;50.144;8.428;2023-11-19T13:03:41;8.15;;;2.08;;
21420;SDS011;10871;50.144;8.428;2023-11-19T13:06:09;7.43;;;3.25;;
21420;SDS011;10871;50.144;8.428;2023-11-19T13:08:42;8.57;;;2.95;;
21420;SDS011;10871;50.144;8.428;2023-11-19T13:11:10;10.88;;;2.78;;
21420;SDS011;10871;50.144;8.428;2023-11-19T13:13:54;9.52;;;3.05;;
21420;SDS011;10871;50.144;8.428;2023-11-19T13:16:22;6.30;;;1.95;;
21420;SDS011;10871;50.144;8.428;2023-11-19T13:18:50;8.48;;;2.15;;
21420;SDS011;10871;50.144;8.428;2023-11-19T13:21:22;8.63;;;1.70;;
21420;SDS011;10871;50.144;8.428;2023-11-19T13:23:49;8.50;;;1.67;;
21420;SDS011;10871;50.144;8.428;2023-11-19T13:26:16;7.05;;;1.90;;
21420;SDS011;10871;50.144;8.428;2023-11-19T13:28:42;8.35;;;2.53;;
21420;SDS011;10871;50.144;8.428;2023-11-19T13:31:09;9.70;;;4.65;;
21420;SDS011;10871;50.144;8.428;2023-11-19T13:33:37;10.20;;;3.45;;
21420;SDS011;10871;50.144;8.428;2023-11-19T13:36:04;9.13;;;2.42;;
21420;SDS011;10871;50.144;8.428;2023-11-19T13:38:35;10.05;;;1.88;;
21420;SDS011;10871;50.144;8.428;2023-11-19T13:41:03;12.10;;;2.55;;
21420;SDS011;10871;50.144;8.428;2023-11-19T13:43:30;7.45;;;2.10;;
21420;SDS011;10871;50.144;8.428;2023-11-19T13:48:50;9.25;;;2.30;;
21420;SDS011;10871;50.144;8.428;2023-11-19T13:51:16;8.05;;;2.33;;
21420;SDS011;10871;50.144;8.428;2023-11-19T13:53:43;6.82;;;2.53;;
21420;SDS011;10871;50.144;8.428;2023-11-19T13:56:13;10.88;;;2.70;;
21420;SDS011;10871;50.144;8.428;2023-11-19T13:58:39;9.25;;;2.20;;
21420;SDS011;10871;50.144;8.428;2023-11-19T14:01:07;6.68;;;2.65;;
21420;SDS011;10871;50.144;8.428;2023-11-19T14:03:34;8.38;;;2.20;;
21420;SDS011;10871;50.144;8.428;2023-11-19T14:06:02;14.00;;;4.28;;
21420;SDS011;10871;50.144;8.428;2023-11-19T14:08:29;10.07;;;2.45;;
21420;SDS011;10871;50.144;8.428;2023-11-19T14:10:56;8.52;;;2.35;;
21420;SDS011;10871;50.144;8.428;2023-11-19T14:13:23;8.93;;;1.70;;
21420;SDS011;10871;50.144;8.428;2023-11-19T14:15:50;9.73;;;2.10;;
21420;SDS011;10871;50.144;8.428;2023-11-19T14:18:17;10.52;;;2.30;;
21420;SDS011;10871;50.144;8.428;2023-11-19T14:20:44;5.55;;;1.77;;
21420;SDS011;10871;50.144;8.428;2023-11-19T14:23:11;11.50;;;2.10;;
21420;SDS011;10871;50.144;8.428;2023-11-19T14:25:38;7.95;;;2.10;;
21420;SDS011;10871;50.144;8.428;2023-11-19T14:28:05;9.52;;;2.10;;
21420;SDS011;10871;50.144;8.428;2023-11-19T14:30:32;7.95;;;2.67;;
21420;SDS011;10871;50.144;8.428;2023-11-19T14:33:02;9.35;;;2.35;;
21420;SDS011;10871;50.144;8.428;2023-11-19T14:35:30;5.55;;;1.52;;
21420;SDS011;10871;50.144;8.428;2023-11-19T14:37:59;9.18;;;2.20;;
21420;SDS011;10871;50.144;8.428;2023-11-19T14:40:26;13.35;;;4.68;;
21420;SDS011;10871;50.144;8.428;2023-11-19T14:42:55;9.13;;;2.80;;
21420;SDS011;10871;50.144;8.428;2023-11-19T14:45:22;9.00;;;3.35;;
21420;SDS011;10871;50.144;8.428;2023-11-19T14:47:48;8.25;;;2.20;;
21420;SDS011;10871;50.144;8.428;2023-11-19T14:50:15;11.73;;;2.00;;
21420;SDS011;10871;50.144;8.428;2023-11-19T14:52:42;11.35;;;2.85;;
21420;SDS011;10871;50.144;8.428;2023-11-19T14:55:09;9.15;;;2.45;;
21420;SDS011;10871;50.144;8.428;2023-11-19T14:57:36;10.23;;;2.33;;
21420;SDS011;10871;50.144;8.428;2023-11-19T15:00:06;16.23;;;2.17;;
21420;SDS011;10871;50.144;8.428;2023-11-19T15:02:40;9.60;;;2.38;;